Time;durP1;ratioP1;P1;durP2;ratioP2;P2;SDS_P1;SDS_P2;PMS_P1;PMS_P2;Temp;Humidity;BMP_temperature;BMP_pressure;BME280_temperature;BME280_humidity;BME280_pressure;Samples;Min_cycle;Max_cycle;Signal;HPM_P1;HPM_P2
2023/05/31 00:02:06;;;;;;;6.63;4.18;;;;;;;17.08;nan;-23647.19;5031560;28;20183;-69
2023/05/31 00:04:31;;;;;;;9.00;4.22;;;;;;;17.27;nan;-23007.72;5031080;28;20237;-70
2023/05/31 00:06:57;;;;;;;8.43;4.35;;;;;;;17.09;nan;-22358.94;5030970;28;20195;-70
2023/05/31 00:09:22;;;;;;;7.75;4.35;;;;;;;17.06;nan;-22680.44;5027143;28;20191;-70
2023/05/31 00:11:48;;;;;;;5.55;3.80;;;;;;;17.10;nan;-23003.59;5030182;28;20244;-70
2023/05/31 00:14:13;;;;;;;8.27;4.10;;;;;;;17.03;nan;-23001.63;5031490;28;20659;-69
2023/05/31 00:16:39;;;;;;;8.05;4.32;;;;;;;16.74;nan;-22994.41;5031880;28;20261;-70
2023/05/31 00:19:04;;;;;;;6.65;4.20;;;;;;;16.76;nan;-22994.94;5030868;28;20186;-70
2023/05/31 00:21:30;;;;;;;7.10;4.20;;;;;;;17.07;nan;-23002.66;5036221;28;20559;-71
2023/05/31 00:23:55;;;;;;;6.05;3.65;;;;;;;16.87;nan;-22997.50;5031460;28;20179;-70
2023/05/31 00:26:22;;;;;;;8.00;4.10;;;;;;;17.00;nan;-23322.91;5030746;28;20210;-70
2023/05/31 00:28:47;;;;;;;6.88;4.07;;;;;;;16.78;nan;-23317.38;5030898;28;20730;-70
2023/05/31 00:31:13;;;;;;;6.70;4.40;;;;;;;16.78;nan;-23639.13;5030560;28;20266;-70
2023/05/31 00:33:38;;;;;;;6.80;4.70;;;;;;;16.93;nan;-23643.16;5031063;28;20187;-70
2023/05/31 00:36:04;;;;;;;7.22;4.55;;;;;;;16.73;nan;-23637.91;5031323;28;20583;-70
2023/05/31 00:38:29;;;;;;;8.80;4.43;;;;;;;16.88;nan;-23641.81;5030032;28;20207;-70
2023/05/31 00:40:55;;;;;;;12.00;4.75;;;;;;;17.06;nan;-23646.53;5031201;28;20186;-70
2023/05/31 00:43:20;;;;;;;8.70;4.63;;;;;;;17.00;nan;-23645.03;5031244;28;20183;-68
2023/05/31 00:45:45;;;;;;;7.90;4.90;;;;;;;16.98;nan;-23644.38;5031279;28;20547;-69
2023/05/31 00:48:11;;;;;;;7.90;5.10;;;;;;;16.88;nan;-23641.69;5030488;28;20686;-70
2023/05/31 00:50:37;;;;;;;7.80;5.32;;;;;;;16.69;nan;-23636.84;5030182;28;20766;-72
2023/05/31 00:53:03;;;;;;;8.88;4.93;;;;;;;16.88;nan;-23641.69;5030499;28;20285;-71
2023/05/31 00:55:30;;;;;;;8.35;5.50;;;;;;;16.88;nan;-23641.81;5029967;28;20187;-69
2023/05/31 00:57:57;;;;;;;7.38;4.78;;;;;;;16.79;nan;-23639.53;5030123;28;20222;-72
2023/05/31 01:00:22;;;;;;;10.50;5.80;;;;;;;16.50;nan;-23953.44;5029339;28;20296;-72
2023/05/31 01:02:50;;;;;;;9.48;5.30;;;;;;;16.54;nan;-23954.41;5029836;28;20187;-70
2023/05/31 01:05:16;;;;;;;13.23;6.05;;;;;;;16.64;nan;-23957.16;5030876;28;20548;-70
2023/05/31 01:07:41;;;;;;;11.90;6.15;;;;;;;16.60;nan;-24277.94;5029825;28;20207;-70
2023/05/31 01:10:07;;;;;;;11.95;6.43;;;;;;;16.51;nan;-24275.28;5030643;28;20182;-71
2023/05/31 01:12:55;;;;;;;14.40;6.28;;;;;;;16.40;nan;-24272.34;5029960;28;20191;-70
2023/05/31 01:15:37;;;;;;;10.90;6.30;;;;;;;16.13;nan;-24264.78;5034175;28;20176;-71
2023/05/31 01:18:26;;;;;;;14.38;7.60;;;;;;;16.23;nan;-24269.47;5029141;28;20582;-69
2023/05/31 01:20:54;;;;;;;12.63;6.38;;;;;;;16.18;nan;-24268.22;5029867;28;20237;-71
2023/05/31 01:23:26;;;;;;;13.10;6.60;;;;;;;16.09;nan;-24265.69;5034540;28;20179;-70
2023/05/31 01:26:22;;;;;;;10.52;6.32;;;;;;;16.34;nan;-24272.53;5030275;28;20191;-70
2023/05/31 01:28:55;;;;;;;12.02;6.55;;;;;;;16.09;nan;-24265.69;5026632;28;20199;-69
2023/05/31 01:31:21;;;;;;;10.88;6.30;;;;;;;16.04;nan;-24264.28;5030252;28;20221;-70
2023/05/31 01:33:49;;;;;;;9.93;5.85;;;;;;;16.28;nan;-24270.84;5030300;28;20609;-70
2023/05/31 01:36:15;;;;;;;12.35;6.63;;;;;;;15.93;nan;-24261.06;5029910;28;20202;-70
2023/05/31 01:38:40;;;;;;;14.23;6.47;;;;;;;15.93;nan;-24261.22;5030223;28;20187;-70
2023/05/31 01:41:07;;;;;;;11.93;6.57;;;;;;;15.99;nan;-24262.75;5030404;28;20183;-69
2023/05/31 01:43:36;;;;;;;11.95;6.85;;;;;;;15.99;nan;-24262.88;5028372;28;20179;-70
2023/05/31 01:46:03;;;;;;;11.80;6.68;;;;;;;15.86;nan;-24259.38;5030208;28;20235;-71
2023/05/31 01:48:29;;;;;;;10.07;5.95;;;;;;;15.76;nan;-24256.59;5029322;28;20179;-69
2023/05/31 01:50:57;;;;;;;9.68;5.80;;;;;;;15.92;nan;-24260.94;5029453;28;20183;-70
2023/05/31 01:53:23;;;;;;;13.32;5.85;;;;;;;15.97;nan;-24262.31;5027408;28;20578;-69
2023/05/31 01:55:49;;;;;;;10.70;5.82;;;;;;;15.94;nan;-24261.34;5030042;28;20179;-71
2023/05/31 01:58:16;;;;;;;10.18;5.85;;;;;;;15.83;nan;-24258.41;5029906;28;20191;-71
2023/05/31 02:00:43;;;;;;;9.68;5.32;;;;;;;15.90;nan;-24260.38;5028990;28;20234;-71
2023/05/31 02:03:09;;;;;;;11.40;5.63;;;;;;;15.72;nan;-24255.47;5029211;28;20187;-70
2023/05/31 02:05:35;;;;;;;12.50;5.72;;;;;;;15.93;nan;-24261.06;5030286;28;20186;-70
2023/05/31 02:08:00;;;;;;;9.45;5.43;;;;;;;15.69;nan;-24254.63;5028974;28;20210;-72
2023/05/31 02:10:26;;;;;;;12.38;5.60;;;;;;;15.58;nan;-24251.56;5029839;28;20642;-70
2023/05/31 02:12:53;;;;;;;9.15;4.95;;;;;;;15.93;nan;-24261.22;5030041;28;20262;-71
2023/05/31 02:15:19;;;;;;;9.15;5.53;;;;;;;15.70;nan;-24254.91;5028856;28;20184;-69
2023/05/31 02:17:46;;;;;;;8.40;5.07;;;;;;;15.71;nan;-24255.06;5030329;28;20210;-70
2023/05/31 02:20:13;;;;;;;10.45;5.53;;;;;;;16.01;nan;-24263.31;5027763;28;20188;-70
2023/05/31 02:22:46;;;;;;;9.93;5.05;;;;;;;15.91;nan;-24260.66;5033198;28;20206;-69
2023/05/31 02:25:13;;;;;;;10.13;5.88;;;;;;;15.99;nan;-24262.75;5036947;28;20183;-70
2023/05/31 02:27:40;;;;;;;10.02;5.25;;;;;;;16.06;nan;-24264.84;5029714;28;20203;-71
2023/05/31 02:30:06;;;;;;;9.60;5.68;;;;;;;15.98;nan;-24262.47;5029592;28;20568;-71
2023/05/31 02:32:37;;;;;;;10.70;5.35;;;;;;;15.68;nan;-24254.34;5031679;28;20674;-69
2023/05/31 02:35:07;;;;;;;8.75;5.10;;;;;;;15.86;nan;-24259.25;5032561;28;20183;-69
2023/05/31 02:37:34;;;;;;;9.55;5.57;;;;;;;15.70;nan;-24254.91;5033331;28;20668;-68
2023/05/31 02:40:00;;;;;;;8.65;5.75;;;;;;;15.88;nan;-24259.94;5032720;28;20222;-70
2023/05/31 02:42:25;;;;;;;9.27;5.90;;;;;;;16.00;nan;-24263.16;5033971;28;20199;-70
2023/05/31 02:44:51;;;;;;;10.18;5.80;;;;;;;15.84;nan;-24258.69;5033762;28;20211;-70
2023/05/31 02:47:16;;;;;;;10.02;5.80;;;;;;;16.09;nan;-24265.56;5032433;28;20290;-70
2023/05/31 02:49:42;;;;;;;10.23;6.03;;;;;;;16.16;nan;-24267.50;5033070;28;20175;-71
2023/05/31 02:52:07;;;;;;;10.65;5.80;;;;;;;15.96;nan;-24261.91;5032869;28;20249;-69
2023/05/31 02:54:33;;;;;;;9.55;5.32;;;;;;;16.22;nan;-24269.31;5032044;28;20178;-71
2023/05/31 02:56:59;;;;;;;9.68;5.28;;;;;;;16.18;nan;-24268.06;5032669;28;20171;-70
2023/05/31 02:59:25;;;;;;;12.77;5.80;;;;;;;16.13;nan;-24266.81;5031446;28;20187;-70
2023/05/31 03:01:51;;;;;;;9.18;5.43;;;;;;;16.54;nan;-24278.13;5032665;28;20262;-70
2023/05/31 03:04:16;;;;;;;9.27;5.38;;;;;;;16.75;nan;-24282.13;5032593;28;20271;-72
2023/05/31 03:06:42;;;;;;;12.77;6.30;;;;;;;17.00;nan;-23322.91;5032871;28;20238;-69
2023/05/31 03:09:08;;;;;;;10.95;6.50;;;;;;;16.95;nan;-20422.44;5032694;28;20191;-70
2023/05/31 03:11:33;;;;;;;9.43;6.20;;;;;;;17.20;nan;-19782.84;5030687;28;20179;-69
2023/05/31 03:13:59;;;;;;;11.63;6.63;;;;;;;17.75;nan;-17856.91;5031861;28;21002;-74
2023/05/31 03:16:24;;;;;;;9.77;5.55;;;;;;;17.78;nan;-16888.28;5030322;28;20210;-70
2023/05/31 03:18:50;;;;;;;12.98;6.32;;;;;;;18.54;nan;-13016.31;5031118;28;20616;-70
2023/05/31 03:21:16;;;;;;;10.52;6.32;;;;;;;18.98;nan;-7181.75;5031952;28;20187;-71
2023/05/31 03:23:42;;;;;;;12.90;5.70;;;;;;;18.72;nan;-2960.25;5031664;28;20322;-71
2023/05/31 03:26:07;;;;;;;11.88;6.07;;;;;;;18.31;nan;-6208.72;5037292;28;20222;-70
2023/05/31 03:28:32;;;;;;;10.38;5.63;;;;;;;18.33;nan;-10423.38;5031538;28;20186;-69
2023/05/31 03:30:58;;;;;;;10.07;6.18;;;;;;;18.35;nan;-12367.00;5031891;28;20234;-70
2023/05/31 03:33:23;;;;;;;8.77;5.93;;;;;;;18.24;nan;-13013.53;5031804;28;20195;-70
2023/05/31 03:35:49;;;;;;;10.85;5.93;;;;;;;18.57;nan;-13664.28;5031505;28;20182;-70
2023/05/31 03:38:14;;;;;;;12.35;6.47;;;;;;;;;;5030236;28;20191;-72
2023/05/31 03:40:40;;;;;;;13.00;6.35;;;;;;;21.01;nan;24895.44;5031667;28;20178;-71
2023/05/31 03:43:05;;;;;;;13.50;5.90;;;;;;;21.10;nan;37955.44;5029882;28;20198;-69
2023/05/31 03:45:31;;;;;;;10.00;5.43;;;;;;;21.06;nan;36101.00;5032547;28;20178;-70
2023/05/31 03:47:56;;;;;;;9.00;5.65;;;;;;;20.87;nan;37505.53;5030887;28;20242;-71
2023/05/31 03:50:21;;;;;;;7.63;4.75;;;;;;;20.79;nan;35751.94;5029633;28;20305;-69
2023/05/31 03:52:47;;;;;;;8.60;4.97;;;;;;;20.44;nan;28153.38;5029075;28;20176;-69
2023/05/31 03:55:13;;;;;;;6.80;4.57;;;;;;;20.02;nan;20905.91;5032598;28;20636;-72
2023/05/31 03:57:38;;;;;;;9.30;4.75;;;;;;;19.41;nan;14004.38;5032157;28;20190;-71
2023/05/31 04:00:05;;;;;;;8.52;4.68;;;;;;;19.05;nan;7462.25;5031619;28;20598;-70
2023/05/31 04:02:31;;;;;;;9.30;4.53;;;;;;;19.06;nan;3225.22;5029898;28;20214;-70
2023/05/31 04:04:57;;;;;;;10.70;5.38;;;;;;;18.86;nan;-1984.03;5031770;28;20215;-71
2023/05/31 04:07:22;;;;;;;8.10;4.80;;;;;;;18.76;nan;-2959.97;5030048;28;20294;-71
2023/05/31 04:09:48;;;;;;;9.80;4.82;;;;;;;18.51;nan;-5559.31;5031880;28;20226;-70
2023/05/31 04:12:13;;;;;;;7.72;4.55;;;;;;;18.40;nan;-6857.41;5030428;28;20663;-70
2023/05/31 04:14:39;;;;;;;8.25;5.00;;;;;;;18.19;nan;-9126.69;5031344;28;20209;-70
2023/05/31 04:17:05;;;;;;;8.77;5.20;;;;;;;18.30;nan;-9127.06;5031020;28;20538;-71
2023/05/31 04:19:30;;;;;;;7.93;4.68;;;;;;;18.13;nan;-9450.53;5031365;28;20254;-69
2023/05/31 04:21:56;;;;;;;8.23;4.97;;;;;;;17.99;nan;-9773.91;5026879;28;20290;-71
2023/05/31 04:24:21;;;;;;;8.38;4.90;;;;;;;18.20;nan;-10422.72;5030991;28;20266;-70
2023/05/31 04:26:47;;;;;;;11.10;5.53;;;;;;;18.26;nan;-9126.94;5069531;28;20203;-70
2023/05/31 04:29:13;;;;;;;11.57;5.35;;;;;;;18.08;nan;-9450.34;5031873;28;20247;-70
2023/05/31 04:31:38;;;;;;;11.98;5.43;;;;;;;18.17;nan;-10098.63;5029590;28;20194;-72
2023/05/31 04:34:07;;;;;;;9.00;5.15;;;;;;;17.95;nan;-10097.63;5021301;28;20232;-70
2023/05/31 04:36:35;;;;;;;7.18;4.55;;;;;;;18.27;nan;-9775.09;5022163;28;20655;-70
2023/05/31 04:39:00;;;;;;;9.10;4.93;;;;;;;18.26;nan;-10423.00;5023200;28;20163;-71
2023/05/31 04:41:26;;;;;;;9.70;5.57;;;;;;;18.16;nan;-10422.50;5021353;28;20696;-71
2023/05/31 04:43:56;;;;;;;10.35;6.03;;;;;;;18.50;nan;-9451.88;5019982;28;20198;-71
2023/05/31 04:46:22;;;;;;;8.73;4.85;;;;;;;18.41;nan;-8803.19;5022896;28;20175;-70
2023/05/31 04:48:49;;;;;;;8.10;5.05;;;;;;;18.25;nan;-8478.66;5013655;28;20183;-73
2023/05/31 04:51:18;;;;;;;6.70;4.32;;;;;;;18.30;nan;-9451.13;5019262;28;20172;-71
2023/05/31 04:53:45;;;;;;;8.10;4.90;;;;;;;18.24;nan;-9774.97;5017743;28;20183;-70
2023/05/31 04:56:12;;;;;;;8.15;5.13;;;;;;;17.64;nan;-11390.56;5011221;28;20184;-74
2023/05/31 04:58:38;;;;;;;10.50;5.05;;;;;;;18.04;nan;-11717.00;5023209;28;20204;-70
2023/05/31 05:01:06;;;;;;;10.75;5.50;;;;;;;18.15;nan;-12365.28;5024697;28;20215;-70
2023/05/31 05:03:32;;;;;;;10.38;5.07;;;;;;;18.44;nan;-11396.03;5031501;28;20233;-69
2023/05/31 05:05:57;;;;;;;8.85;5.50;;;;;;;18.66;nan;-10100.91;5031355;28;20552;-70
2023/05/31 05:08:23;;;;;;;8.98;5.13;;;;;;;18.72;nan;-5883.41;5031254;28;20231;-71
2023/05/31 05:10:49;;;;;;;10.23;5.35;;;;;;;18.62;nan;-6208.22;5030824;28;20182;-70
2023/05/31 05:13:16;;;;;;;9.90;5.22;;;;;;;18.85;nan;-5883.13;5031033;28;20190;-70
2023/05/31 05:15:41;;;;;;;7.97;4.95;;;;;;;18.90;nan;-4908.66;5031007;28;20163;-71
2023/05/31 05:18:07;;;;;;;9.82;4.80;;;;;;;19.19;nan;-3932.44;5030946;28;20194;-71
2023/05/31 05:20:32;;;;;;;8.73;4.57;;;;;;;19.18;nan;-2306.59;5031397;28;20171;-69
2023/05/31 05:23:01;;;;;;;8.50;5.38;;;;;;;19.33;nan;-1003.88;5031308;28;20644;-70
2023/05/31 05:25:27;;;;;;;8.70;4.80;;;;;;;19.67;nan;-23.34;5029860;28;20749;-72
2023/05/31 05:27:52;;;;;;;10.13;5.35;;;;;;;19.63;nan;953.47;5037431;28;20214;-71
2023/05/31 05:30:18;;;;;;;9.10;5.15;;;;;;;19.63;nan;2908.94;5031439;28;20178;-71
2023/05/31 05:32:43;;;;;;;9.27;4.93;;;;;;;19.66;nan;2583.44;5031147;28;20617;-69
2023/05/31 05:35:08;;;;;;;12.23;6.72;;;;;;;20.18;nan;4223.41;5026976;28;20639;-71
2023/05/31 05:37:34;;;;;;;8.25;5.38;;;;;;;20.10;nan;4874.66;5011202;28;20670;-70
2023/05/31 05:40:00;;;;;;;9.80;5.22;;;;;;;20.16;nan;4222.94;5011267;28;20204;-70
2023/05/31 05:42:27;;;;;;;7.57;5.03;;;;;;;20.36;nan;6839.91;5011806;28;20202;-72
2023/05/31 05:44:52;;;;;;;9.45;5.18;;;;;;;20.31;nan;9780.69;5010006;28;20230;-71
2023/05/31 05:47:17;;;;;;;8.23;5.13;;;;;;;20.73;nan;10774.31;5011018;28;20203;-70
2023/05/31 05:49:43;;;;;;;10.55;5.60;;;;;;;20.90;nan;13072.31;5009431;28;20627;-73
2023/05/31 05:52:08;;;;;;;7.63;4.75;;;;;;;21.13;nan;15703.28;5011189;28;20208;-71
2023/05/31 05:54:33;;;;;;;8.88;5.03;;;;;;;21.08;nan;17342.16;5010747;28;20199;-70
2023/05/31 05:56:59;;;;;;;10.77;5.38;;;;;;;21.20;nan;20302.50;5011587;28;20271;-70
2023/05/31 05:59:24;;;;;;;9.60;4.57;;;;;;;21.54;nan;21303.94;5010196;28;20212;-72
2023/05/31 06:01:50;;;;;;;15.75;5.60;;;;;;;21.92;nan;22637.88;5011459;28;20246;-70
2023/05/31 06:04:15;;;;;;;7.80;5.03;;;;;;;22.11;nan;22317.69;5011021;28;20195;-70
2023/05/31 06:06:41;;;;;;;8.18;5.05;;;;;;;22.22;nan;24958.41;5012142;28;20188;-72
2023/05/31 06:09:07;;;;;;;8.23;4.97;;;;;;;22.31;nan;24963.16;5014477;28;20576;-71
2023/05/31 06:11:32;;;;;;;8.63;5.28;;;;;;;22.49;nan;27611.28;5014704;28;20200;-71
2023/05/31 06:13:58;;;;;;;8.23;5.07;;;;;;;22.25;nan;31888.47;5014894;28;20180;-71
2023/05/31 06:16:23;;;;;;;8.23;5.20;;;;;;;22.81;nan;34238.81;5014962;28;20180;-70
2023/05/31 06:18:49;;;;;;;9.35;5.57;;;;;;;22.62;nan;37580.91;5014830;28;20547;-71
2023/05/31 06:21:15;;;;;;;7.32;5.10;;;;;;;22.73;nan;43221.59;5014713;28;20180;-70
2023/05/31 06:23:41;;;;;;;7.63;4.63;;;;;;;22.97;nan;43956.91;5014337;28;20176;-71
2023/05/31 06:26:06;;;;;;;11.02;5.88;;;;;;;23.07;nan;44748.00;5014753;28;20206;-71
2023/05/31 06:28:32;;;;;;;12.93;5.40;;;;;;;23.08;nan;47333.41;5020483;28;20690;-70
2023/05/31 06:31:00;;;;;;;7.45;4.78;;;;;;;23.29;nan;48879.22;5012632;28;20184;-71
2023/05/31 06:33:25;;;;;;;8.77;4.75;;;;;;;23.60;nan;53283.56;5014486;28;20172;-70
2023/05/31 06:35:51;;;;;;;8.15;4.60;;;;;;;23.62;nan;54779.59;5014482;28;20643;-72
2023/05/31 06:38:16;;;;;;;7.88;4.57;;;;;;;24.00;nan;56141.41;5014068;28;20176;-70
2023/05/31 06:40:43;;;;;;;7.60;4.88;;;;;;;24.28;nan;57460.88;5013222;28;20214;-70
2023/05/31 06:43:09;;;;;;;5.93;4.00;;;;;;;24.28;nan;58220.47;5014223;28;20176;-71
2023/05/31 06:45:34;;;;;;;7.13;4.78;;;;;;;24.19;nan;58727.88;5014272;28;20182;-70
2023/05/31 06:47:59;;;;;;;5.68;4.10;;;;;;;23.96;nan;59777.03;5014245;28;20220;-71
2023/05/31 06:50:25;;;;;;;6.82;4.22;;;;;;;24.35;nan;60015.75;5013080;28;20178;-71
2023/05/31 06:52:50;;;;;;;7.97;4.53;;;;;;;24.51;nan;60168.66;5014071;28;20164;-71
2023/05/31 06:55:16;;;;;;;7.20;4.63;;;;;;;24.47;nan;60380.94;5013601;28;20169;-72
2023/05/31 06:57:41;;;;;;;5.63;3.72;;;;;;;24.29;nan;60590.72;5012786;28;20238;-70
2023/05/31 07:00:07;;;;;;;8.70;4.18;;;;;;;24.19;nan;60689.78;5014365;28;20793;-72
2023/05/31 07:02:33;;;;;;;6.15;4.05;;;;;;;24.31;nan;60622.22;5014790;28;20699;-70
2023/05/31 07:04:59;;;;;;;6.32;4.00;;;;;;;24.52;nan;60640.38;5012955;28;20180;-71
2023/05/31 07:07:25;;;;;;;6.07;3.83;;;;;;;24.84;nan;60897.03;5013767;28;20277;-71
2023/05/31 07:09:51;;;;;;;6.45;3.95;;;;;;;24.82;nan;61059.47;5014359;28;20183;-71
2023/05/31 07:12:17;;;;;;;7.68;3.95;;;;;;;25.01;nan;61159.19;5014259;28;20169;-71
2023/05/31 07:14:42;;;;;;;4.93;3.55;;;;;;;25.12;nan;61260.44;5014088;28;20172;-72
2023/05/31 07:17:07;;;;;;;6.85;4.10;;;;;;;25.16;nan;61223.09;5013990;28;20258;-70
2023/05/31 07:19:45;;;;;;;4.97;3.60;;;;;;;25.38;nan;61964.06;5016458;28;20191;-73
2023/05/31 07:22:13;;;;;;;6.00;3.60;;;;;;;25.79;nan;62051.97;5029235;28;20274;-71
2023/05/31 07:24:39;;;;;;;6.57;3.40;;;;;;;25.67;nan;62248.28;5033455;28;20187;-71
2023/05/31 07:27:05;;;;;;;5.70;3.45;;;;;;;25.62;nan;62270.84;5033836;28;20212;-71
2023/05/31 07:29:30;;;;;;;6.75;3.97;;;;;;;25.68;nan;62152.00;5039924;28;20262;-71
2023/05/31 07:31:56;;;;;;;6.22;3.95;;;;;;;25.56;nan;62165.09;5033101;28;20214;-72
2023/05/31 07:34:21;;;;;;;6.32;3.60;;;;;;;25.81;nan;62190.38;5033049;28;20182;-71
2023/05/31 07:36:47;;;;;;;4.82;3.50;;;;;;;26.03;nan;62267.25;5032123;28;20171;-72
2023/05/31 07:39:12;;;;;;;6.15;4.00;;;;;;;26.20;nan;62449.06;5031875;28;20593;-71
2023/05/31 07:41:38;;;;;;;5.32;3.45;;;;;;;26.19;nan;62356.22;5033337;28;20258;-72
2023/05/31 07:44:05;;;;;;;6.20;4.10;;;;;;;26.41;nan;62347.28;5032322;28;20198;-71
2023/05/31 07:46:30;;;;;;;8.10;3.72;;;;;;;26.51;nan;62411.13;5032961;28;20677;-71
2023/05/31 07:48:56;;;;;;;5.35;3.65;;;;;;;26.43;nan;62454.41;5033647;28;20168;-70
2023/05/31 07:51:21;;;;;;;6.70;3.50;;;;;;;26.32;nan;62405.72;5033534;28;20174;-72
2023/05/31 07:53:46;;;;;;;4.95;3.25;;;;;;;26.35;nan;62419.66;5032781;28;20249;-72
2023/05/31 07:56:13;;;;;;;6.00;3.53;;;;;;;26.13;nan;62384.00;5032972;28;20653;-71
2023/05/31 07:58:38;;;;;;;6.15;3.60;;;;;;;26.12;nan;62377.63;5033123;28;20728;-72
2023/05/31 08:01:04;;;;;;;7.93;3.97;;;;;;;26.35;nan;62665.44;5032949;28;20219;-71
2023/05/31 08:03:31;;;;;;;5.78;3.40;;;;;;;26.48;nan;62491.03;5031676;28;20214;-72
2023/05/31 08:05:56;;;;;;;7.53;3.75;;;;;;;26.33;nan;62475.00;5032594;28;20199;-71
2023/05/31 08:08:22;;;;;;;6.25;3.35;;;;;;;26.17;nan;62391.19;5032237;28;20234;-71
2023/05/31 08:10:47;;;;;;;4.65;3.13;;;;;;;25.98;nan;62447.50;5032738;28;20172;-71
2023/05/31 08:13:12;;;;;;;7.40;3.58;;;;;;;26.06;nan;62330.91;5032714;28;20167;-72
2023/05/31 08:15:38;;;;;;;7.15;3.80;;;;;;;25.91;nan;62388.28;5032546;28;20294;-73
2023/05/31 08:18:04;;;;;;;6.18;3.97;;;;;;;25.30;nan;62292.44;5031054;28;20709;-71
2023/05/31 08:20:29;;;;;;;5.93;3.80;;;;;;;25.87;nan;62370.63;5032240;28;20172;-72
2023/05/31 08:22:54;;;;;;;5.90;3.78;;;;;;;25.64;nan;62417.66;5031063;28;20180;-71
2023/05/31 08:25:21;;;;;;;5.15;3.38;;;;;;;25.61;nan;62274.94;5031751;28;20209;-73
2023/05/31 08:27:46;;;;;;;4.40;3.17;;;;;;;25.53;nan;62428.59;5033394;28;20198;-70
2023/05/31 08:30:12;;;;;;;5.97;3.28;;;;;;;25.20;nan;62343.81;5037218;28;20171;-72
2023/05/31 08:32:38;;;;;;;4.38;3.17;;;;;;;25.22;nan;62375.44;5032393;28;20201;-72
2023/05/31 08:35:06;;;;;;;7.45;3.50;;;;;;;25.39;nan;62389.06;5032482;28;20179;-71
2023/05/31 08:37:32;;;;;;;4.43;3.28;;;;;;;25.27;nan;62284.38;5032214;28;20179;-73
2023/05/31 08:39:57;;;;;;;4.90;3.28;;;;;;;25.02;nan;62248.56;5032035;28;20171;-72
2023/05/31 08:42:42;;;;;;;5.25;3.25;;;;;;;25.13;nan;62247.47;5032220;28;20270;-73
2023/05/31 08:45:10;;;;;;;4.38;3.10;;;;;;;25.48;nan;62310.34;5032729;28;20159;-73
2023/05/31 08:47:43;;;;;;;5.20;3.25;;;;;;;25.57;nan;62417.50;5032018;28;20208;-72
2023/05/31 08:50:11;;;;;;;5.47;3.15;;;;;;;25.37;nan;62306.25;5032546;28;20638;-71
2023/05/31 08:52:37;;;;;;;4.97;3.15;;;;;;;25.78;nan;62375.47;5032234;28;20186;-72
2023/05/31 08:55:04;;;;;;;6.22;3.88;;;;;;;25.65;nan;62481.63;5031788;28;20194;-71
2023/05/31 08:57:30;;;;;;;8.77;3.42;;;;;;;25.83;nan;62368.66;5032189;28;20172;-71
2023/05/31 08:59:56;;;;;;;4.38;3.20;;;;;;;25.68;nan;62519.09;5031741;28;20215;-71
2023/05/31 09:02:23;;;;;;;4.45;3.28;;;;;;;25.60;nan;62352.31;5031643;28;20175;-73
2023/05/31 09:04:50;;;;;;;5.47;3.53;;;;;;;25.77;nan;62479.06;5031828;28;20194;-71
2023/05/31 09:07:15;;;;;;;5.65;3.92;;;;;;;25.82;nan;62705.31;5031947;28;20217;-72
2023/05/31 09:09:41;;;;;;;5.35;3.60;;;;;;;25.78;nan;62349.28;5031936;28;20171;-71
2023/05/31 09:12:07;;;;;;;5.50;3.45;;;;;;;25.65;nan;62428.69;5031505;28;20175;-71
2023/05/31 09:14:33;;;;;;;5.88;3.65;;;;;;;25.58;nan;62439.00;5031206;28;20282;-61
2023/05/31 09:16:59;;;;;;;8.70;3.80;;;;;;;25.64;nan;62349.00;5031579;28;20312;-60
2023/05/31 09:19:25;;;;;;;6.28;3.78;;;;;;;25.98;nan;62393.09;5030712;28;20634;-61
2023/05/31 09:21:52;;;;;;;6.75;4.55;;;;;;;25.98;nan;62542.38;5031307;28;20171;-61
2023/05/31 09:24:19;;;;;;;6.03;4.20;;;;;;;25.70;nan;62345.41;5031281;28;20175;-62
2023/05/31 09:26:49;;;;;;;5.43;3.42;;;;;;;25.63;nan;62385.09;5030791;28;20285;-61
2023/05/31 09:29:15;;;;;;;4.97;3.53;;;;;;;25.65;nan;62342.31;5031013;28;20171;-63
2023/05/31 09:31:41;;;;;;;5.95;3.80;;;;;;;25.95;nan;62644.28;5031142;28;20541;-61
2023/05/31 09:34:25;;;;;;;6.05;3.90;;;;;;;26.22;nan;62419.94;5031011;28;20183;-61
2023/05/31 09:36:51;;;;;;;4.57;3.60;;;;;;;26.06;nan;62457.22;5031262;28;20193;-62
2023/05/31 09:39:16;;;;;;;8.38;3.58;;;;;;;26.24;nan;62538.09;5030794;28;20211;-61
2023/05/31 09:41:42;;;;;;;7.10;4.30;;;;;;;26.49;nan;62500.03;5032639;28;20618;-61
2023/05/31 09:44:08;;;;;;;9.27;4.40;;;;;;;26.14;nan;62421.25;5035269;28;20179;-61
2023/05/31 09:46:34;;;;;;;7.53;4.72;;;;;;;26.00;nan;62641.00;5035103;28;20360;-61
2023/05/31 09:49:02;;;;;;;5.43;3.67;;;;;;;26.20;nan;62433.94;5034362;28;20183;-61
2023/05/31 09:51:30;;;;;;;6.75;3.72;;;;;;;26.16;nan;62648.88;5035078;28;20540;-62
2023/05/31 09:53:55;;;;;;;6.90;4.28;;;;;;;26.30;nan;62594.75;5034895;28;20175;-62
2023/05/31 09:56:22;;;;;;;7.90;4.05;;;;;;;26.60;nan;62463.34;5034741;28;20718;-62
2023/05/31 09:58:49;;;;;;;6.00;4.13;;;;;;;26.43;nan;62480.63;5034439;28;20175;-62
2023/05/31 10:01:16;;;;;;;8.43;3.78;;;;;;;26.68;nan;62631.91;5034787;28;20269;-62
2023/05/31 10:03:43;;;;;;;7.20;3.95;;;;;;;26.59;nan;62545.56;5033032;28;20187;-61
2023/05/31 10:06:09;;;;;;;6.53;4.30;;;;;;;26.48;nan;62595.88;5033190;28;20270;-61
2023/05/31 10:08:34;;;;;;;7.97;4.10;;;;;;;26.57;nan;62501.88;5031831;28;20206;-62
2023/05/31 10:11:01;;;;;;;6.45;4.05;;;;;;;26.70;nan;62537.16;5034365;28;20566;-61
2023/05/31 10:13:31;;;;;;;6.25;4.20;;;;;;;26.95;nan;62634.00;5033298;28;20296;-61
2023/05/31 10:16:03;;;;;;;6.03;4.28;;;;;;;26.93;nan;62571.38;5034353;28;20277;-63
2023/05/31 10:18:32;;;;;;;6.68;4.25;;;;;;;26.38;nan;62509.00;5034033;28;20190;-61
2023/05/31 10:21:22;;;;;;;7.35;4.50;;;;;;;26.05;nan;62497.41;5034255;28;20178;-62
2023/05/31 10:24:11;;;;;;;6.72;4.30;;;;;;;26.13;nan;62585.75;5028907;28;20636;-62
2023/05/31 10:27:02;;;;;;;6.05;3.90;;;;;;;26.51;nan;62607.16;5017931;28;20275;-62
2023/05/31 10:29:31;;;;;;;6.60;3.78;;;;;;;26.99;nan;62632.75;5031791;28;20192;-61
2023/05/31 10:32:05;;;;;;;5.82;3.70;;;;;;;27.16;nan;62586.63;5032997;28;20572;-61
2023/05/31 10:34:32;;;;;;;5.95;4.10;;;;;;;27.33;nan;62637.56;5033078;28;20182;-61
2023/05/31 10:36:57;;;;;;;6.80;4.50;;;;;;;27.56;nan;62684.38;5033593;28;20187;-63
2023/05/31 10:39:25;;;;;;;8.60;5.22;;;;;;;27.60;nan;62763.06;5033019;28;20225;-62
2023/05/31 10:42:14;;;;;;;7.57;4.50;;;;;;;23.71;nan;64220.50;5033801;28;20190;-62
2023/05/31 10:44:47;;;;;;;6.32;4.03;;;;;;;26.79;nan;62799.25;5032050;28;20199;-62
2023/05/31 10:47:15;;;;;;;5.80;4.07;;;;;;;27.18;nan;62646.66;5033280;28;20246;-61
2023/05/31 10:49:43;;;;;;;6.00;3.78;;;;;;;27.23;nan;62629.34;5034044;28;20273;-63
2023/05/31 10:52:09;;;;;;;5.40;3.90;;;;;;;27.38;nan;62630.16;5032929;28;20691;-62
2023/05/31 10:54:35;;;;;;;6.78;4.18;;;;;;;27.29;nan;62614.03;5031630;28;20281;-63
2023/05/31 10:57:03;;;;;;;6.15;4.05;;;;;;;27.02;nan;62878.16;5031904;28;20186;-61
2023/05/31 10:59:38;;;;;;;5.72;4.00;;;;;;;27.17;nan;62617.22;5033443;28;20185;-62
2023/05/31 11:02:06;;;;;;;7.20;4.05;;;;;;;26.78;nan;62565.22;5032280;28;20622;-61
2023/05/31 11:04:32;;;;;;;6.93;4.43;;;;;;;26.13;nan;62585.75;5033034;28;20262;-60
2023/05/31 11:07:21;;;;;;;7.55;4.35;;;;;;;26.22;nan;62509.59;5033076;28;20334;-62
2023/05/31 11:09:58;;;;;;;6.88;4.20;;;;;;;26.54;nan;62524.09;5032824;28;20571;-62
2023/05/31 11:12:35;;;;;;;7.35;4.28;;;;;;;27.05;nan;62616.56;5033024;28;20713;-61
2023/05/31 11:15:03;;;;;;;6.35;4.10;;;;;;;27.01;nan;62619.88;5031250;28;20270;-62
2023/05/31 11:17:29;;;;;;;6.13;3.92;;;;;;;27.43;nan;62630.66;5033518;28;20658;-62
2023/05/31 11:19:55;;;;;;;5.30;3.83;;;;;;;27.46;nan;62691.84;5033098;28;20175;-62
2023/05/31 11:22:27;;;;;;;6.85;3.80;;;;;;;26.77;nan;62757.59;5033563;28;20179;-62
2023/05/31 11:24:58;;;;;;;7.30;4.18;;;;;;;27.01;nan;62598.31;5033476;28;20289;-60
2023/05/31 11:27:48;;;;;;;5.82;4.00;;;;;;;27.00;nan;62670.63;5032895;28;20747;-60
2023/05/31 11:30:15;;;;;;;5.55;3.72;;;;;;;27.03;nan;62603.22;5033434;28;20179;-62
2023/05/31 11:32:40;;;;;;;7.28;4.47;;;;;;;27.38;nan;62706.31;5033042;28;20183;-60
2023/05/31 11:35:24;;;;;;;5.95;4.20;;;;;;;27.49;nan;62694.75;5033172;28;20175;-60
2023/05/31 11:37:51;;;;;;;8.02;4.03;;;;;;;28.07;nan;62724.44;5032460;28;20241;-61
2023/05/31 11:40:17;;;;;;;7.43;3.72;;;;;;;28.33;nan;62800.44;5032492;28;20610;-61
2023/05/31 11:42:44;;;;;;;6.25;3.53;;;;;;;28.34;nan;62807.44;5032411;28;20166;-61
2023/05/31 11:45:11;;;;;;;6.90;4.43;;;;;;;28.43;nan;62857.22;5032798;28;20618;-61
2023/05/31 11:47:48;;;;;;;5.78;3.42;;;;;;;28.55;nan;62817.78;5032881;28;20242;-62